sensor_id;sensor_type;location;lat;lon;timestamp;temperature;humidity
72202;SHT30;60105;54.956;73.412;2022-07-29T00:01:17;18.54;91.03
72202;SHT30;60105;54.956;73.412;2022-07-29T00:03:43;18.55;90.68
72202;SHT30;60105;54.956;73.412;2022-07-29T00:06:20;18.58;90.68
72202;SHT30;60105;54.956;73.412;2022-07-29T00:08:46;18.58;90.88
72202;SHT30;60105;54.956;73.412;2022-07-29T00:11:22;18.64;90.66
72202;SHT30;60105;54.956;73.412;2022-07-29T00:13:48;18.64;90.54
72202;SHT30;60105;54.956;73.412;2022-07-29T00:16:20;18.68;90.67
72202;SHT30;60105;54.956;73.412;2022-07-29T00:18:46;18.71;90.66
72202;SHT30;60105;54.956;73.412;2022-07-29T00:21:17;18.69;90.82
72202;SHT30;60105;54.956;73.412;2022-07-29T00:23:48;18.72;90.79
72202;SHT30;60105;54.956;73.412;2022-07-29T00:26:17;18.73;90.72
72202;SHT30;60105;54.956;73.412;2022-07-29T00:28:43;18.81;90.36
72202;SHT30;60105;54.956;73.412;2022-07-29T00:31:14;18.77;90.47
72202;SHT30;60105;54.956;73.412;2022-07-29T00:33:40;18.82;90.32
72202;SHT30;60105;54.956;73.412;2022-07-29T00:36:07;18.76;90.41
72202;SHT30;60105;54.956;73.412;2022-07-29T00:38:33;18.77;90.62
72202;SHT30;60105;54.956;73.412;2022-07-29T00:40:59;18.77;90.27
72202;SHT30;60105;54.956;73.412;2022-07-29T00:43:25;18.72;90.33
72202;SHT30;60105;54.956;73.412;2022-07-29T00:45:59;18.68;90.42
72202;SHT30;60105;54.956;73.412;2022-07-29T00:48:25;18.61;90.84
72202;SHT30;60105;54.956;73.412;2022-07-29T00:50:51;18.64;90.45
72202;SHT30;60105;54.956;73.412;2022-07-29T00:53:19;18.65;90.86
72202;SHT30;60105;54.956;73.412;2022-07-29T00:55:46;18.65;90.19
72202;SHT30;60105;54.956;73.412;2022-07-29T00:58:13;18.59;89.67
72202;SHT30;60105;54.956;73.412;2022-07-29T01:00:49;18.51;90.29
72202;SHT30;60105;54.956;73.412;2022-07-29T01:03:20;18.47;90.59
72202;SHT30;60105;54.956;73.412;2022-07-29T01:05:46;18.41;90.49
72202;SHT30;60105;54.956;73.412;2022-07-29T01:08:14;18.34;91.34
72202;SHT30;60105;54.956;73.412;2022-07-29T01:10:41;18.27;91.08
72202;SHT30;60105;54.956;73.412;2022-07-29T01:13:10;18.20;91.27
72202;SHT30;60105;54.956;73.412;2022-07-29T01:15:43;18.23;91.43
72202;SHT30;60105;54.956;73.412;2022-07-29T01:18:31;18.20;91.51
72202;SHT30;60105;54.956;73.412;2022-07-29T01:26:33;18.28;90.56
72202;SHT30;60105;54.956;73.412;2022-07-29T01:32:02;18.20;91.10
72202;SHT30;60105;54.956;73.412;2022-07-29T01:34:44;18.20;91.03
72202;SHT30;60105;54.956;73.412;2022-07-29T01:37:29;18.26;90.95
72202;SHT30;60105;54.956;73.412;2022-07-29T01:39:58;18.27;90.59
72202;SHT30;60105;54.956;73.412;2022-07-29T01:45:39;18.21;91.02
72202;SHT30;60105;54.956;73.412;2022-07-29T01:48:16;18.20;91.44
72202;SHT30;60105;54.956;73.412;2022-07-29T01:50:53;18.24;91.18
72202;SHT30;60105;54.956;73.412;2022-07-29T01:56:26;18.26;91.47
72202;SHT30;60105;54.956;73.412;2022-07-29T01:58:56;18.27;91.59
72202;SHT30;60105;54.956;73.412;2022-07-29T02:01:24;18.21;91.96
72202;SHT30;60105;54.956;73.412;2022-07-29T02:03:53;18.26;91.89
72202;SHT30;60105;54.956;73.412;2022-07-29T02:06:22;18.20;91.90
72202;SHT30;60105;54.956;73.412;2022-07-29T02:08:50;18.23;91.84
72202;SHT30;60105;54.956;73.412;2022-07-29T02:11:17;18.23;91.95
72202;SHT30;60105;54.956;73.412;2022-07-29T02:13:44;18.23;91.97
72202;SHT30;60105;54.956;73.412;2022-07-29T02:16:11;18.21;92.22
72202;SHT30;60105;54.956;73.412;2022-07-29T02:18:41;18.21;92.25
72202;SHT30;60105;54.956;73.412;2022-07-29T02:21:09;18.24;92.15
72202;SHT30;60105;54.956;73.412;2022-07-29T02:23:37;18.26;92.21
72202;SHT30;60105;54.956;73.412;2022-07-29T02:26:05;18.24;92.47
72202;SHT30;60105;54.956;73.412;2022-07-29T02:28:33;18.21;92.74
72202;SHT30;60105;54.956;73.412;2022-07-29T02:31:01;18.21;92.86
72202;SHT30;60105;54.956;73.412;2022-07-29T02:33:29;18.27;92.95
72202;SHT30;60105;54.956;73.412;2022-07-29T02:35:57;18.26;93.00
72202;SHT30;60105;54.956;73.412;2022-07-29T02:38:30;18.30;93.21
72202;SHT30;60105;54.956;73.412;2022-07-29T02:41:30;18.34;93.04
72202;SHT30;60105;54.956;73.412;2022-07-29T02:44:06;18.38;92.97
72202;SHT30;60105;54.956;73.412;2022-07-29T02:46:37;18.41;92.75
72202;SHT30;60105;54.956;73.412;2022-07-29T02:49:15;18.40;92.67
72202;SHT30;60105;54.956;73.412;2022-07-29T02:51:49;18.43;92.68
72202;SHT30;60105;54.956;73.412;2022-07-29T02:54:29;18.41;92.82
72202;SHT30;60105;54.956;73.412;2022-07-29T02:57:05;18.45;92.74
72202;SHT30;60105;54.956;73.412;2022-07-29T02:59:34;18.48;92.58
72202;SHT30;60105;54.956;73.412;2022-07-29T03:02:02;18.51;92.55
72202;SHT30;60105;54.956;73.412;2022-07-29T03:04:30;18.54;92.27
72202;SHT30;60105;54.956;73.412;2022-07-29T03:06:59;18.54;92.25
72202;SHT30;60105;54.956;73.412;2022-07-29T03:09:26;18.58;92.32
72202;SHT30;60105;54.956;73.412;2022-07-29T03:11:54;18.54;92.34
72202;SHT30;60105;54.956;73.412;2022-07-29T03:14:21;18.54;91.96
72202;SHT30;60105;54.956;73.412;2022-07-29T03:16:49;18.61;92.07
72202;SHT30;60105;54.956;73.412;2022-07-29T03:19:17;18.75;91.20
72202;SHT30;60105;54.956;73.412;2022-07-29T03:21:44;18.79;90.76
72202;SHT30;60105;54.956;73.412;2022-07-29T03:24:10;18.84;90.85
72202;SHT30;60105;54.956;73.412;2022-07-29T03:26:47;18.93;90.41
72202;SHT30;60105;54.956;73.412;2022-07-29T03:29:13;19.00;90.22
72202;SHT30;60105;54.956;73.412;2022-07-29T03:31:39;18.99;90.00
72202;SHT30;60105;54.956;73.412;2022-07-29T03:34:06;18.93;90.49
72202;SHT30;60105;54.956;73.412;2022-07-29T03:36:32;18.99;90.61
72202;SHT30;60105;54.956;73.412;2022-07-29T03:38:59;19.09;90.78
72202;SHT30;60105;54.956;73.412;2022-07-29T03:41:31;19.23;90.34
72202;SHT30;60105;54.956;73.412;2022-07-29T03:43:58;19.49;89.13
72202;SHT30;60105;54.956;73.412;2022-07-29T03:46:26;19.54;89.06
72202;SHT30;60105;54.956;73.412;2022-07-29T03:48:58;19.57;88.34
72202;SHT30;60105;54.956;73.412;2022-07-29T03:51:26;19.55;88.32
72202;SHT30;60105;54.956;73.412;2022-07-29T03:53:53;19.60;88.34
72202;SHT30;60105;54.956;73.412;2022-07-29T03:56:21;19.57;87.95
72202;SHT30;60105;54.956;73.412;2022-07-29T03:58:50;19.49;87.79
72202;SHT30;60105;54.956;73.412;2022-07-29T04:01:18;19.41;88.06
72202;SHT30;60105;54.956;73.412;2022-07-29T04:03:45;19.46;88.19
72202;SHT30;60105;54.956;73.412;2022-07-29T04:06:21;19.50;88.28
72202;SHT30;60105;54.956;73.412;2022-07-29T04:08:52;19.50;88.41
72202;SHT30;60105;54.956;73.412;2022-07-29T04:11:18;19.55;88.71
72202;SHT30;60105;54.956;73.412;2022-07-29T04:13:45;19.49;89.15
72202;SHT30;60105;54.956;73.412;2022-07-29T04:16:11;19.53;88.67
72202;SHT30;60105;54.956;73.412;2022-07-29T04:18:37;19.60;88.98
72202;SHT30;60105;54.956;73.412;2022-07-29T04:21:03;19.70;88.55
72202;SHT30;60105;54.956;73.412;2022-07-29T04:23:34;19.84;88.14
72202;SHT30;60105;54.956;73.412;2022-07-29T04:26:01;19.99;87.55
72202;SHT30;60105;54.956;73.412;2022-07-29T04:28:27;20.22;86.70
72202;SHT30;60105;54.956;73.412;2022-07-29T04:30:58;20.40;86.37
72202;SHT30;60105;54.956;73.412;2022-07-29T04:33:24;20.46;86.21
72202;SHT30;60105;54.956;73.412;2022-07-29T04:35:50;20.53;86.09
72202;SHT30;60105;54.956;73.412;2022-07-29T04:38:22;20.57;85.78
72202;SHT30;60105;54.956;73.412;2022-07-29T04:40:48;20.63;86.39
72202;SHT30;60105;54.956;73.412;2022-07-29T04:43:15;20.66;85.91
72202;SHT30;60105;54.956;73.412;2022-07-29T04:45:41;20.74;85.33
72202;SHT30;60105;54.956;73.412;2022-07-29T04:48:08;20.79;84.76
72202;SHT30;60105;54.956;73.412;2022-07-29T04:50:34;20.74;84.82
72202;SHT30;60105;54.956;73.412;2022-07-29T04:53:00;20.77;84.60
72202;SHT30;60105;54.956;73.412;2022-07-29T04:55:26;20.80;84.70
72202;SHT30;60105;54.956;73.412;2022-07-29T04:57:52;20.81;84.02
72202;SHT30;60105;54.956;73.412;2022-07-29T05:00:28;20.77;84.57
72202;SHT30;60105;54.956;73.412;2022-07-29T05:02:54;20.79;83.99
72202;SHT30;60105;54.956;73.412;2022-07-29T05:05:21;20.80;84.32
72202;SHT30;60105;54.956;73.412;2022-07-29T05:07:47;20.77;84.10
72202;SHT30;60105;54.956;73.412;2022-07-29T05:10:13;20.74;84.05
72202;SHT30;60105;54.956;73.412;2022-07-29T05:12:39;20.87;84.03
72202;SHT30;60105;54.956;73.412;2022-07-29T05:15:06;20.91;83.21
72202;SHT30;60105;54.956;73.412;2022-07-29T05:17:32;20.98;83.36
72202;SHT30;60105;54.956;73.412;2022-07-29T05:19:58;21.10;83.15
72202;SHT30;60105;54.956;73.412;2022-07-29T05:22:24;21.22;82.56
72202;SHT30;60105;54.956;73.412;2022-07-29T05:24:50;21.39;82.30
72202;SHT30;60105;54.956;73.412;2022-07-29T05:27:17;21.46;82.00
72202;SHT30;60105;54.956;73.412;2022-07-29T05:29:43;21.56;80.77
72202;SHT30;60105;54.956;73.412;2022-07-29T05:32:10;21.60;80.40
72202;SHT30;60105;54.956;73.412;2022-07-29T05:34:36;21.70;79.92
72202;SHT30;60105;54.956;73.412;2022-07-29T05:37:02;21.76;80.13
72202;SHT30;60105;54.956;73.412;2022-07-29T05:39:28;21.87;79.74
72202;SHT30;60105;54.956;73.412;2022-07-29T05:41:54;21.82;79.83
72202;SHT30;60105;54.956;73.412;2022-07-29T05:44:20;21.83;79.97
72202;SHT30;60105;54.956;73.412;2022-07-29T05:46:46;21.99;79.78
72202;SHT30;60105;54.956;73.412;2022-07-29T05:49:13;22.10;79.09
72202;SHT30;60105;54.956;73.412;2022-07-29T05:51:39;22.20;78.57
72202;SHT30;60105;54.956;73.412;2022-07-29T05:54:06;22.22;78.09
72202;SHT30;60105;54.956;73.412;2022-07-29T05:56:32;22.36;77.35
72202;SHT30;60105;54.956;73.412;2022-07-29T05:58:58;22.44;78.19
72202;SHT30;60105;54.956;73.412;2022-07-29T06:01:34;22.38;78.18
72202;SHT30;60105;54.956;73.412;2022-07-29T06:04:06;22.40;78.67
72202;SHT30;60105;54.956;73.412;2022-07-29T06:06:33;22.52;77.46
72202;SHT30;60105;54.956;73.412;2022-07-29T06:09:00;22.44;78.11
72202;SHT30;60105;54.956;73.412;2022-07-29T06:11:32;22.58;78.19
72202;SHT30;60105;54.956;73.412;2022-07-29T06:14:03;22.75;77.84
72202;SHT30;60105;54.956;73.412;2022-07-29T06:16:29;22.95;77.83
72202;SHT30;60105;54.956;73.412;2022-07-29T06:18:55;23.00;76.51
72202;SHT30;60105;54.956;73.412;2022-07-29T06:21:21;23.12;75.47
72202;SHT30;60105;54.956;73.412;2022-07-29T06:23:52;23.16;74.96
72202;SHT30;60105;54.956;73.412;2022-07-29T06:26:18;23.17;76.13
72202;SHT30;60105;54.956;73.412;2022-07-29T06:28:44;23.30;74.94
72202;SHT30;60105;54.956;73.412;2022-07-29T06:31:10;23.46;76.03
72202;SHT30;60105;54.956;73.412;2022-07-29T06:33:49;23.53;74.63
72202;SHT30;60105;54.956;73.412;2022-07-29T06:36:26;23.36;76.00
72202;SHT30;60105;54.956;73.412;2022-07-29T06:39:15;23.34;76.13
72202;SHT30;60105;54.956;73.412;2022-07-29T06:41:42;23.31;75.62
72202;SHT30;60105;54.956;73.412;2022-07-29T06:44:18;23.24;75.37
72202;SHT30;60105;54.956;73.412;2022-07-29T06:46:45;23.26;76.13
72202;SHT30;60105;54.956;73.412;2022-07-29T06:49:14;23.36;75.49
72202;SHT30;60105;54.956;73.412;2022-07-29T06:51:41;23.27;75.75
72202;SHT30;60105;54.956;73.412;2022-07-29T06:54:07;23.24;76.37
72202;SHT30;60105;54.956;73.412;2022-07-29T06:56:34;23.46;76.36
72202;SHT30;60105;54.956;73.412;2022-07-29T06:59:04;23.64;75.16
72202;SHT30;60105;54.956;73.412;2022-07-29T07:01:31;23.77;75.33
72202;SHT30;60105;54.956;73.412;2022-07-29T07:03:58;23.91;74.86
72202;SHT30;60105;54.956;73.412;2022-07-29T07:06:24;24.02;74.33
72202;SHT30;60105;54.956;73.412;2022-07-29T07:08:50;24.12;73.82
72202;SHT30;60105;54.956;73.412;2022-07-29T07:11:16;24.37;73.11
72202;SHT30;60105;54.956;73.412;2022-07-29T07:13:42;24.48;73.12
72202;SHT30;60105;54.956;73.412;2022-07-29T07:16:08;24.67;71.89
72202;SHT30;60105;54.956;73.412;2022-07-29T07:18:35;24.69;70.61
72202;SHT30;60105;54.956;73.412;2022-07-29T07:21:01;24.50;71.72
72202;SHT30;60105;54.956;73.412;2022-07-29T07:23:27;24.46;71.46
72202;SHT30;60105;54.956;73.412;2022-07-29T07:25:53;24.40;71.53
72202;SHT30;60105;54.956;73.412;2022-07-29T07:28:20;24.44;72.05
72202;SHT30;60105;54.956;73.412;2022-07-29T07:30:46;24.42;72.92
72202;SHT30;60105;54.956;73.412;2022-07-29T07:33:12;24.39;72.26
72202;SHT30;60105;54.956;73.412;2022-07-29T07:35:39;24.56;71.48
72202;SHT30;60105;54.956;73.412;2022-07-29T07:38:05;24.79;70.83
72202;SHT30;60105;54.956;73.412;2022-07-29T07:40:32;24.84;70.15
72202;SHT30;60105;54.956;73.412;2022-07-29T07:42:58;24.90;70.98
72202;SHT30;60105;54.956;73.412;2022-07-29T07:45:24;24.83;69.64
72202;SHT30;60105;54.956;73.412;2022-07-29T07:47:52;25.03;69.31
72202;SHT30;60105;54.956;73.412;2022-07-29T07:50:25;25.08;69.39
72202;SHT30;60105;54.956;73.412;2022-07-29T07:52:53;25.12;68.75
72202;SHT30;60105;54.956;73.412;2022-07-29T07:55:21;25.32;68.20
72202;SHT30;60105;54.956;73.412;2022-07-29T07:57:49;25.46;66.03
72202;SHT30;60105;54.956;73.412;2022-07-29T08:00:16;25.69;65.43
72202;SHT30;60105;54.956;73.412;2022-07-29T08:02:43;25.94;65.45
72202;SHT30;60105;54.956;73.412;2022-07-29T08:05:14;26.01;65.74
72202;SHT30;60105;54.956;73.412;2022-07-29T08:07:45;25.92;65.64
72202;SHT30;60105;54.956;73.412;2022-07-29T08:10:12;25.82;65.60
72202;SHT30;60105;54.956;73.412;2022-07-29T08:12:44;25.85;64.96
72202;SHT30;60105;54.956;73.412;2022-07-29T08:15:14;25.82;65.68
72202;SHT30;60105;54.956;73.412;2022-07-29T08:17:45;25.94;65.64
72202;SHT30;60105;54.956;73.412;2022-07-29T08:20:11;25.93;65.87
72202;SHT30;60105;54.956;73.412;2022-07-29T08:22:37;25.83;65.68
72202;SHT30;60105;54.956;73.412;2022-07-29T08:25:04;25.80;65.78
72202;SHT30;60105;54.956;73.412;2022-07-29T08:27:31;25.87;63.84
72202;SHT30;60105;54.956;73.412;2022-07-29T08:30:02;25.80;62.61
72202;SHT30;60105;54.956;73.412;2022-07-29T08:32:28;25.79;62.85
72202;SHT30;60105;54.956;73.412;2022-07-29T08:34:55;25.69;62.32
72202;SHT30;60105;54.956;73.412;2022-07-29T08:37:21;25.65;63.31
72202;SHT30;60105;54.956;73.412;2022-07-29T08:39:48;25.59;63.88
72202;SHT30;60105;54.956;73.412;2022-07-29T08:42:14;25.52;64.30
72202;SHT30;60105;54.956;73.412;2022-07-29T08:44:42;25.59;64.17
72202;SHT30;60105;54.956;73.412;2022-07-29T08:47:08;25.63;64.61
72202;SHT30;60105;54.956;73.412;2022-07-29T08:49:35;25.78;64.63
72202;SHT30;60105;54.956;73.412;2022-07-29T08:52:02;25.90;64.42
72202;SHT30;60105;54.956;73.412;2022-07-29T08:54:39;25.96;64.44
72202;SHT30;60105;54.956;73.412;2022-07-29T08:57:06;25.86;63.96
72202;SHT30;60105;54.956;73.412;2022-07-29T08:59:37;25.76;64.45
72202;SHT30;60105;54.956;73.412;2022-07-29T09:02:20;25.73;64.30
72202;SHT30;60105;54.956;73.412;2022-07-29T09:04:47;25.83;64.44
72202;SHT30;60105;54.956;73.412;2022-07-29T09:07:18;26.01;63.88
72202;SHT30;60105;54.956;73.412;2022-07-29T09:09:51;26.33;63.21
72202;SHT30;60105;54.956;73.412;2022-07-29T09:12:17;26.55;62.14
72202;SHT30;60105;54.956;73.412;2022-07-29T09:14:43;26.74;61.29
72202;SHT30;60105;54.956;73.412;2022-07-29T09:17:10;26.74;61.79
72202;SHT30;60105;54.956;73.412;2022-07-29T09:19:37;26.84;62.74
72202;SHT30;60105;54.956;73.412;2022-07-29T09:22:08;26.88;60.46
72202;SHT30;60105;54.956;73.412;2022-07-29T09:27:26;27.22;60.11
72202;SHT30;60105;54.956;73.412;2022-07-29T09:30:14;27.40;59.86
72202;SHT30;60105;54.956;73.412;2022-07-29T09:32:57;27.53;59.64
72202;SHT30;60105;54.956;73.412;2022-07-29T09:35:25;27.23;59.65
72202;SHT30;60105;54.956;73.412;2022-07-29T09:37:52;27.13;60.31
72202;SHT30;60105;54.956;73.412;2022-07-29T09:40:21;27.23;60.09
72202;SHT30;60105;54.956;73.412;2022-07-29T09:42:48;27.19;60.51
72202;SHT30;60105;54.956;73.412;2022-07-29T09:45:31;26.74;61.54
72202;SHT30;60105;54.956;73.412;2022-07-29T09:47:58;26.45;62.38
72202;SHT30;60105;54.956;73.412;2022-07-29T09:50:43;26.54;62.85
72202;SHT30;60105;54.956;73.412;2022-07-29T09:53:10;26.69;62.55
72202;SHT30;60105;54.956;73.412;2022-07-29T09:55:50;26.92;61.57
72202;SHT30;60105;54.956;73.412;2022-07-29T09:58:18;27.09;60.56
72202;SHT30;60105;54.956;73.412;2022-07-29T10:00:45;27.07;61.19
72202;SHT30;60105;54.956;73.412;2022-07-29T10:03:12;26.85;61.67
72202;SHT30;60105;54.956;73.412;2022-07-29T10:05:39;26.62;62.96
72202;SHT30;60105;54.956;73.412;2022-07-29T10:08:06;26.31;63.31
72202;SHT30;60105;54.956;73.412;2022-07-29T10:10:35;26.01;64.32
72202;SHT30;60105;54.956;73.412;2022-07-29T10:13:05;25.86;64.26
72202;SHT30;60105;54.956;73.412;2022-07-29T10:15:34;25.69;64.69
72202;SHT30;60105;54.956;73.412;2022-07-29T10:18:05;25.58;65.38
72202;SHT30;60105;54.956;73.412;2022-07-29T10:20:32;25.55;65.30
72202;SHT30;60105;54.956;73.412;2022-07-29T10:22:59;25.58;65.47
72202;SHT30;60105;54.956;73.412;2022-07-29T10:25:26;25.48;65.56
72202;SHT30;60105;54.956;73.412;2022-07-29T10:27:53;25.49;65.54
72202;SHT30;60105;54.956;73.412;2022-07-29T10:30:22;25.46;65.57
72202;SHT30;60105;54.956;73.412;2022-07-29T10:44:24;25.45;65.97
72202;SHT30;60105;54.956;73.412;2022-07-29T10:46:52;25.48;65.62
72202;SHT30;60105;54.956;73.412;2022-07-29T10:52:06;25.51;65.65
72202;SHT30;60105;54.956;73.412;2022-07-29T10:59:45;25.51;65.00
72202;SHT30;60105;54.956;73.412;2022-07-29T11:07:24;25.85;64.17
72202;SHT30;60105;54.956;73.412;2022-07-29T11:15:13;25.94;63.89
72202;SHT30;60105;54.956;73.412;2022-07-29T11:31:44;26.34;61.18
72202;SHT30;60105;54.956;73.412;2022-07-29T11:45:06;26.64;59.83
72202;SHT30;60105;54.956;73.412;2022-07-29T11:50:14;26.67;59.89
72202;SHT30;60105;54.956;73.412;2022-07-29T11:52:44;26.47;60.44
72202;SHT30;60105;54.956;73.412;2022-07-29T11:55:19;26.23;60.27
72202;SHT30;60105;54.956;73.412;2022-07-29T11:57:55;26.13;60.98
72202;SHT30;60105;54.956;73.412;2022-07-29T12:00:28;26.31;60.68
72202;SHT30;60105;54.956;73.412;2022-07-29T12:02:55;26.31;59.90
72202;SHT30;60105;54.956;73.412;2022-07-29T12:05:34;26.28;59.36
72202;SHT30;60105;54.956;73.412;2022-07-29T12:08:16;26.26;59.10
72202;SHT30;60105;54.956;73.412;2022-07-29T12:10:49;26.27;59.27
72202;SHT30;60105;54.956;73.412;2022-07-29T12:13:17;26.30;59.77
72202;SHT30;60105;54.956;73.412;2022-07-29T12:15:57;26.24;58.90
72202;SHT30;60105;54.956;73.412;2022-07-29T12:18:24;26.30;58.86
72202;SHT30;60105;54.956;73.412;2022-07-29T12:21:00;26.17;58.71
72202;SHT30;60105;54.956;73.412;2022-07-29T12:23:32;26.00;59.29
72202;SHT30;60105;54.956;73.412;2022-07-29T12:25:59;26.07;59.63
72202;SHT30;60105;54.956;73.412;2022-07-29T12:28:25;26.03;59.05
72202;SHT30;60105;54.956;73.412;2022-07-29T12:30:52;25.96;59.70
72202;SHT30;60105;54.956;73.412;2022-07-29T12:33:22;26.04;60.06
72202;SHT30;60105;54.956;73.412;2022-07-29T12:35:51;26.23;59.72
72202;SHT30;60105;54.956;73.412;2022-07-29T12:38:18;26.34;59.42
72202;SHT30;60105;54.956;73.412;2022-07-29T12:40:46;26.14;58.43
72202;SHT30;60105;54.956;73.412;2022-07-29T12:43:19;26.06;58.58
72202;SHT30;60105;54.956;73.412;2022-07-29T12:45:48;26.00;59.41
72202;SHT30;60105;54.956;73.412;2022-07-29T12:48:16;26.01;59.04
72202;SHT30;60105;54.956;73.412;2022-07-29T12:50:57;26.03;59.20
72202;SHT30;60105;54.956;73.412;2022-07-29T12:53:34;25.94;59.03
72202;SHT30;60105;54.956;73.412;2022-07-29T12:56:02;25.85;59.15
72202;SHT30;60105;54.956;73.412;2022-07-29T12:58:34;25.62;59.22
72202;SHT30;60105;54.956;73.412;2022-07-29T13:01:11;25.34;59.75
72202;SHT30;60105;54.956;73.412;2022-07-29T13:03:58;25.38;59.57
72202;SHT30;60105;54.956;73.412;2022-07-29T13:06:41;25.39;59.59
72202;SHT30;60105;54.956;73.412;2022-07-29T13:11:46;25.52;59.73
72202;SHT30;60105;54.956;73.412;2022-07-29T13:14:34;25.53;59.10
72202;SHT30;60105;54.956;73.412;2022-07-29T13:19:50;25.34;59.62
72202;SHT30;60105;54.956;73.412;2022-07-29T13:22:20;25.20;59.13
72202;SHT30;60105;54.956;73.412;2022-07-29T13:24:52;24.92;59.43
72202;SHT30;60105;54.956;73.412;2022-07-29T13:27:24;24.84;60.03
72202;SHT30;60105;54.956;73.412;2022-07-29T13:29:51;24.88;59.94
72202;SHT30;60105;54.956;73.412;2022-07-29T13:32:29;24.91;59.85
72202;SHT30;60105;54.956;73.412;2022-07-29T13:34:57;24.92;59.90
72202;SHT30;60105;54.956;73.412;2022-07-29T13:37:24;24.91;60.16
72202;SHT30;60105;54.956;73.412;2022-07-29T13:39:52;24.91;59.82
72202;SHT30;60105;54.956;73.412;2022-07-29T13:42:19;24.87;60.13
72202;SHT30;60105;54.956;73.412;2022-07-29T13:44:46;24.80;60.41
72202;SHT30;60105;54.956;73.412;2022-07-29T13:47:14;24.71;60.76
72202;SHT30;60105;54.956;73.412;2022-07-29T13:49:41;24.71;60.74
72202;SHT30;60105;54.956;73.412;2022-07-29T13:52:18;24.86;61.34
72202;SHT30;60105;54.956;73.412;2022-07-29T13:54:45;24.94;59.68
72202;SHT30;60105;54.956;73.412;2022-07-29T13:57:12;25.12;59.24
72202;SHT30;60105;54.956;73.412;2022-07-29T13:59:39;25.39;58.53
72202;SHT30;60105;54.956;73.412;2022-07-29T14:02:06;25.86;57.56
72202;SHT30;60105;54.956;73.412;2022-07-29T14:04:33;25.55;57.79
72202;SHT30;60105;54.956;73.412;2022-07-29T14:07:00;25.21;59.44
72202;SHT30;60105;54.956;73.412;2022-07-29T14:09:26;24.97;59.68
72202;SHT30;60105;54.956;73.412;2022-07-29T14:11:55;24.62;60.90
72202;SHT30;60105;54.956;73.412;2022-07-29T14:14:21;24.36;61.74
72202;SHT30;60105;54.956;73.412;2022-07-29T14:16:48;24.26;62.15
72202;SHT30;60105;54.956;73.412;2022-07-29T14:19:14;24.13;62.25
72202;SHT30;60105;54.956;73.412;2022-07-29T14:21:40;24.04;62.18
72202;SHT30;60105;54.956;73.412;2022-07-29T14:24:07;23.88;62.76
72202;SHT30;60105;54.956;73.412;2022-07-29T14:26:39;23.79;62.56
72202;SHT30;60105;54.956;73.412;2022-07-29T14:29:05;23.70;63.39
72202;SHT30;60105;54.956;73.412;2022-07-29T14:31:31;23.63;62.90
72202;SHT30;60105;54.956;73.412;2022-07-29T14:33:57;23.55;62.95
72202;SHT30;60105;54.956;73.412;2022-07-29T14:36:24;23.47;63.74
72202;SHT30;60105;54.956;73.412;2022-07-29T14:38:50;23.42;63.25
72202;SHT30;60105;54.956;73.412;2022-07-29T14:41:27;23.40;63.64
72202;SHT30;60105;54.956;73.412;2022-07-29T14:43:54;23.34;64.17
72202;SHT30;60105;54.956;73.412;2022-07-29T14:46:20;23.27;63.96
72202;SHT30;60105;54.956;73.412;2022-07-29T14:48:46;23.19;63.89
72202;SHT30;60105;54.956;73.412;2022-07-29T14:51:23;23.12;64.39
72202;SHT30;60105;54.956;73.412;2022-07-29T14:53:49;23.05;64.40
72202;SHT30;60105;54.956;73.412;2022-07-29T14:56:16;22.98;64.61
72202;SHT30;60105;54.956;73.412;2022-07-29T14:58:42;22.92;64.37
72202;SHT30;60105;54.956;73.412;2022-07-29T15:01:08;22.85;64.84
72202;SHT30;60105;54.956;73.412;2022-07-29T15:03:34;22.79;64.41
72202;SHT30;60105;54.956;73.412;2022-07-29T15:06:00;22.72;64.73
72202;SHT30;60105;54.956;73.412;2022-07-29T15:08:27;22.62;64.53
72202;SHT30;60105;54.956;73.412;2022-07-29T15:10:55;22.57;64.29
72202;SHT30;60105;54.956;73.412;2022-07-29T15:13:23;22.52;64.36
72202;SHT30;60105;54.956;73.412;2022-07-29T15:15:49;22.45;64.84
72202;SHT30;60105;54.956;73.412;2022-07-29T15:18:20;22.38;64.99
72202;SHT30;60105;54.956;73.412;2022-07-29T15:20:46;22.34;65.49
72202;SHT30;60105;54.956;73.412;2022-07-29T15:23:12;22.27;66.23
72202;SHT30;60105;54.956;73.412;2022-07-29T15:25:43;22.20;66.35
72202;SHT30;60105;54.956;73.412;2022-07-29T15:28:09;22.14;66.39
72202;SHT30;60105;54.956;73.412;2022-07-29T15:30:36;22.04;66.49
72202;SHT30;60105;54.956;73.412;2022-07-29T15:33:16;22.00;66.38
72202;SHT30;60105;54.956;73.412;2022-07-29T15:35:42;21.96;66.68
72202;SHT30;60105;54.956;73.412;2022-07-29T15:38:09;21.92;66.91
72202;SHT30;60105;54.956;73.412;2022-07-29T15:40:37;21.86;66.92
72202;SHT30;60105;54.956;73.412;2022-07-29T15:43:09;21.82;66.39
72202;SHT30;60105;54.956;73.412;2022-07-29T15:45:44;21.69;66.68
72202;SHT30;60105;54.956;73.412;2022-07-29T15:48:37;21.63;65.73
72202;SHT30;60105;54.956;73.412;2022-07-29T15:51:09;21.53;65.93
72202;SHT30;60105;54.956;73.412;2022-07-29T15:53:35;21.46;65.94
72202;SHT30;60105;54.956;73.412;2022-07-29T15:56:01;21.41;65.38
72202;SHT30;60105;54.956;73.412;2022-07-29T15:58:27;21.41;66.07
72202;SHT30;60105;54.956;73.412;2022-07-29T16:00:54;21.32;66.70
72202;SHT30;60105;54.956;73.412;2022-07-29T16:03:20;21.21;66.44
72202;SHT30;60105;54.956;73.412;2022-07-29T16:05:57;21.08;68.15
72202;SHT30;60105;54.956;73.412;2022-07-29T16:08:24;21.05;67.38
72202;SHT30;60105;54.956;73.412;2022-07-29T16:10:55;21.01;67.17
72202;SHT30;60105;54.956;73.412;2022-07-29T16:13:21;20.94;67.55
72202;SHT30;60105;54.956;73.412;2022-07-29T16:15:51;20.88;67.54
72202;SHT30;60105;54.956;73.412;2022-07-29T16:18:17;20.80;68.49
72202;SHT30;60105;54.956;73.412;2022-07-29T16:20:44;20.71;68.56
72202;SHT30;60105;54.956;73.412;2022-07-29T16:23:10;20.63;69.40
72202;SHT30;60105;54.956;73.412;2022-07-29T16:25:47;20.57;68.69
72202;SHT30;60105;54.956;73.412;2022-07-29T16:28:18;20.52;68.39
72202;SHT30;60105;54.956;73.412;2022-07-29T16:30:45;20.47;68.78
72202;SHT30;60105;54.956;73.412;2022-07-29T16:33:11;20.46;67.79
72202;SHT30;60105;54.956;73.412;2022-07-29T16:35:37;20.32;67.99
72202;SHT30;60105;54.956;73.412;2022-07-29T16:38:05;20.22;68.07
72202;SHT30;60105;54.956;73.412;2022-07-29T16:40:41;20.18;67.87
72202;SHT30;60105;54.956;73.412;2022-07-29T16:43:08;20.06;67.64
72202;SHT30;60105;54.956;73.412;2022-07-29T16:45:34;19.96;68.11
72202;SHT30;60105;54.956;73.412;2022-07-29T16:48:12;19.85;67.54